Terminal Aerodrome Forecast
Issued by NWS Portland, OR

Home | Current Version | Previous Version | Text Only | Print | Product List | Glossary On
Versions: 1 2 3 4 5 6 7 8 9 10 11 12 13 14 15 16 17 18 19 20 21
144
FTUS46 KPQR 221120
TAFSLE
TAF
KSLE 221120Z 2212/2312 22004KT P6SM OVC016
      TEMPO 2212/2216 -SHRA
     FM221900 22004KT P6SM SCT015 OVC025
     FM222200 27006KT P6SM SCT025 BKN120
     FM230600 24004KT P6SM OVC025=

USA.gov is the U.S. government's official web portal to all federal, state and local government web resources and services.